Time;durP1;ratioP1;P1;durP2;ratioP2;P2;SDS_P1;SDS_P2;PMS_P1;PMS_P2;Temp;Humidity;BMP_temperature;BMP_pressure;BME280_temperature;BME280_humidity;BME280_pressure;Samples;Min_cycle;Max_cycle;Signal;HPM_P1;HPM_P2
2022/09/19 00:01:32;;;;;;;5.10;1.20;;;;;;;6.65;78.32;99746.59;110531;1230;107787;-76
2022/09/19 00:04:02;;;;;;;3.50;1.70;;;;;;;6.60;78.34;99748.55;110579;1232;97718;-76
2022/09/19 00:06:29;;;;;;;5.90;1.70;;;;;;;6.57;78.37;99751.50;110631;1233;139815;-76
2022/09/19 00:08:56;;;;;;;6.00;1.90;;;;;;;6.53;78.48;99752.02;110819;1232;96501;-76
2022/09/19 00:11:22;;;;;;;4.70;1.70;;;;;;;6.51;78.56;99755.67;110723;1232;138431;-75
2022/09/19 00:13:50;;;;;;;5.80;1.40;;;;;;;6.49;78.66;99751.14;110815;1231;97577;-76
2022/09/19 00:16:23;;;;;;;4.40;1.60;;;;;;;6.47;78.72;99751.41;110838;1232;98161;-75
2022/09/19 00:18:51;;;;;;;3.30;1.50;;;;;;;6.44;78.95;99757.55;110873;1230;97725;-76
2022/09/19 00:21:26;;;;;;;3.60;2.00;;;;;;;6.43;79.00;99758.66;110848;1232;111218;-75
2022/09/19 00:26:38;;;;;;;3.50;1.80;;;;;;;6.38;79.03;99759.95;110846;1230;108993;-75
2022/09/19 00:29:05;;;;;;;5.50;1.80;;;;;;;6.34;79.06;99762.21;110745;1233;137898;-74
2022/09/19 00:31:30;;;;;;;2.70;1.20;;;;;;;6.33;79.11;99759.27;110856;1232;97608;-76
2022/09/19 00:33:56;;;;;;;1.80;1.30;;;;;;;6.29;79.21;99761.53;110913;1232;97703;-76
2022/09/19 00:36:22;;;;;;;3.00;1.50;;;;;;;6.26;79.37;99757.22;110761;1230;137894;-76
2022/09/19 00:38:48;;;;;;;3.50;1.70;;;;;;;6.23;79.47;99754.89;110772;1233;97679;-74
2022/09/19 00:41:26;;;;;;;4.30;1.40;;;;;;;6.20;79.58;99759.59;110821;1232;138454;-77
2022/09/19 00:44:00;;;;;;;6.20;2.00;;;;;;;6.18;79.70;99756.29;110808;1232;111528;-76
2022/09/19 00:46:28;;;;;;;5.80;1.90;;;;;;;6.16;79.80;99754.95;110707;1232;139529;-76
2022/09/19 00:49:03;;;;;;;10.60;2.00;;;;;;;6.14;79.72;99750.05;110808;1232;108158;-75
2022/09/19 00:51:37;;;;;;;4.30;1.40;;;;;;;6.14;79.90;99753.42;110822;1232;97622;-74
2022/09/19 00:54:12;;;;;;;4.40;1.80;;;;;;;6.14;80.02;99753.23;110747;1232;138362;-75
2022/09/19 00:56:42;;;;;;;4.30;1.20;;;;;;;6.14;79.95;99753.63;110843;1232;111587;-76
2022/09/19 00:59:08;;;;;;;4.20;1.80;;;;;;;6.12;80.10;99750.31;110741;1230;137866;-75
2022/09/19 01:01:34;;;;;;;6.30;1.80;;;;;;;6.11;80.15;99752.84;110842;1231;96913;-75
2022/09/19 01:04:01;;;;;;;7.20;2.80;;;;;;;6.09;80.33;99751.88;110886;1230;97631;-76
2022/09/19 01:07:03;;;;;;;7.50;2.10;;;;;;;6.08;80.42;99752.96;110698;1231;139642;-76
2022/09/19 01:09:54;;;;;;;2.30;1.40;;;;;;;6.05;80.52;99755.02;110910;1230;99883;-74
2022/09/19 01:12:31;;;;;;;6.00;1.40;;;;;;;6.02;80.61;99753.74;110750;1232;137778;-76
2022/09/19 01:15:20;;;;;;;2.40;1.40;;;;;;;5.97;80.87;99750.02;110815;1230;97615;-76
2022/09/19 01:17:48;;;;;;;3.30;1.70;;;;;;;5.95;81.03;99752.93;110705;1233;138543;-76
2022/09/19 01:20:39;;;;;;;3.40;2.00;;;;;;;5.94;80.93;99754.06;110845;1231;111757;-75
2022/09/19 01:23:24;;;;;;;6.40;1.90;;;;;;;5.92;81.05;99757.50;110666;1233;139980;-75
2022/09/19 01:26:25;;;;;;;4.00;2.30;;;;;;;5.92;81.03;99761.05;110821;1231;107796;-76
2022/09/19 01:28:57;;;;;;;4.50;1.70;;;;;;;5.91;81.06;99761.27;110570;1230;138178;-76
2022/09/19 01:31:27;;;;;;;1.90;1.30;;;;;;;5.88;81.38;99763.46;110813;1231;97621;-76
2022/09/19 01:34:05;;;;;;;4.60;1.90;;;;;;;5.86;81.30;99759.11;110833;1231;111123;-76
2022/09/19 01:36:41;;;;;;;4.50;2.10;;;;;;;5.83;81.18;99758.17;110710;1232;138774;-75
2022/09/19 01:39:09;;;;;;;7.80;1.70;;;;;;;5.79;81.36;99760.44;110942;1232;106659;-76
2022/09/19 01:41:39;;;;;;;6.20;1.80;;;;;;;5.76;81.37;99759.50;110705;1232;137939;-75
2022/09/19 01:44:14;;;;;;;5.20;2.10;;;;;;;5.73;81.56;99766.50;110864;1232;97717;-76
2022/09/19 01:46:52;;;;;;;8.30;2.50;;;;;;;5.73;81.71;99770.08;110692;1232;138620;-75
2022/09/19 01:50:01;;;;;;;5.50;2.80;;;;;;;5.72;81.75;99767.27;110908;1232;100013;-75
2022/09/19 01:52:59;;;;;;;5.40;2.90;;;;;;;5.70;82.00;99772.13;110769;1231;138239;-77
2022/09/19 01:56:00;;;;;;;11.60;4.50;;;;;;;5.71;81.93;99779.20;110804;1232;97685;-76
2022/09/19 01:58:46;;;;;;;7.20;4.80;;;;;;;5.71;82.06;99772.27;110702;1232;139373;-76
2022/09/19 02:01:35;;;;;;;8.60;4.20;;;;;;;5.72;82.11;99779.30;110834;1232;110430;-75
2022/09/19 02:04:16;;;;;;;10.50;4.90;;;;;;;5.73;82.24;99778.05;110866;1231;100707;-75
2022/09/19 02:06:51;;;;;;;12.10;5.80;;;;;;;5.72;82.35;99774.16;110817;1231;107864;-77
2022/09/19 02:09:30;;;;;;;16.40;7.60;;;;;;;5.73;82.64;99776.29;110846;1232;97579;-76
2022/09/19 02:12:01;;;;;;;23.90;7.20;;;;;;;5.72;82.67;99773.81;110685;1231;138604;-76
2022/09/19 02:14:31;;;;;;;12.00;6.00;;;;;;;5.74;82.79;99774.97;110824;1233;111911;-75
2022/09/19 02:17:07;;;;;;;12.90;6.60;;;;;;;5.77;82.84;99772.92;110718;1232;138378;-76
2022/09/19 02:19:41;;;;;;;16.50;7.50;;;;;;;5.80;82.99;99778.67;110845;1232;107618;-76
2022/09/19 02:22:13;;;;;;;21.00;8.70;;;;;;;5.83;83.09;99783.33;110796;1232;97717;-78
2022/09/19 02:24:43;;;;;;;14.20;8.20;;;;;;;5.87;83.12;99782.29;110731;1232;137925;-76
2022/09/19 02:27:15;;;;;;;13.00;7.30;;;;;;;5.91;83.07;99783.79;110890;1232;111214;-78
2022/09/19 02:29:48;;;;;;;18.70;9.20;;;;;;;5.94;83.43;99787.73;110741;1232;138167;-78
2022/09/19 02:32:16;;;;;;;26.80;10.80;;;;;;;5.95;83.97;99785.40;110793;1231;106565;-78
2022/09/19 02:34:41;;;;;;;17.20;7.90;;;;;;;5.97;83.99;99791.34;110721;1232;139090;-75
2022/09/19 02:37:35;;;;;;;15.20;8.80;;;;;;;5.99;84.08;99784.34;110918;1232;97596;-76
2022/09/19 02:40:16;;;;;;;17.00;8.80;;;;;;;6.02;84.41;99785.46;110917;1232;111312;-76
2022/09/19 02:43:17;;;;;;;12.00;6.80;;;;;;;6.05;84.33;99787.47;110594;1232;137849;-76
2022/09/19 02:45:51;;;;;;;;;;;;;;;6.08;84.61;99791.98;110856;1233;107637;-77
2022/09/19 02:48:29;;;;;;;20.30;9.30;;;;;;;6.07;84.61;99788.64;110651;1232;124413;-77
2022/09/19 02:51:09;;;;;;;22.60;9.80;;;;;;;6.10;84.64;99787.29;110808;1231;97728;-77
2022/09/19 02:53:40;;;;;;;19.90;9.50;;;;;;;6.14;84.64;99797.58;110739;1232;139960;-76
2022/09/19 02:56:06;;;;;;;21.90;10.70;;;;;;;6.17;84.89;99793.41;110866;1231;100781;-77
2022/09/19 02:58:45;;;;;;;19.40;9.20;;;;;;;6.19;84.93;99798.64;110706;1232;139044;-77
2022/09/19 03:01:18;;;;;;;20.10;9.10;;;;;;;6.23;84.80;99797.45;110892;1232;98052;-77
2022/09/19 03:06:38;;;;;;;13.10;7.50;;;;;;;6.25;85.24;99800.02;110719;1232;137786;-76
2022/09/19 03:09:06;;;;;;;14.30;7.90;;;;;;;6.26;85.39;99800.00;110851;1232;99775;-74
2022/09/19 03:11:34;;;;;;;10.80;5.90;;;;;;;6.27;85.50;99801.88;110742;1232;137978;-74
2022/09/19 03:14:01;;;;;;;11.90;7.10;;;;;;;6.29;85.42;99801.64;110846;1232;97661;-75
2022/09/19 03:16:48;;;;;;;11.30;6.50;;;;;;;6.30;85.47;99803.38;110775;1230;139054;-74
2022/09/19 03:19:14;;;;;;;11.60;6.50;;;;;;;6.31;85.63;99803.16;110748;1230;111271;-74
2022/09/19 03:21:41;;;;;;;11.20;6.10;;;;;;;6.33;85.75;99800.06;110556;1230;97691;-75
2022/09/19 03:24:07;;;;;;;12.90;6.80;;;;;;;6.33;85.92;99796.86;110768;1232;138181;-76
2022/09/19 03:26:35;;;;;;;9.40;5.60;;;;;;;6.35;86.11;99801.05;111005;1232;96505;-78
2022/09/19 03:29:03;;;;;;;11.90;6.10;;;;;;;6.38;86.18;99799.16;110730;1232;138047;-77
2022/09/19 03:31:29;;;;;;;10.40;5.90;;;;;;;6.40;86.19;99802.80;110878;1231;101583;-75
2022/09/19 03:33:58;;;;;;;14.40;7.00;;;;;;;6.41;86.38;99803.63;110811;1232;97740;-77
2022/09/19 03:36:25;;;;;;;14.30;6.50;;;;;;;6.43;86.47;99802.66;110721;1233;137908;-74
2022/09/19 03:38:50;;;;;;;13.80;6.40;;;;;;;6.46;86.62;99808.59;110852;1231;97683;-78
2022/09/19 03:41:20;;;;;;;14.40;7.20;;;;;;;6.48;86.77;99804.05;110678;1233;138464;-77
2022/09/19 03:43:46;;;;;;;11.90;6.60;;;;;;;6.52;86.60;99804.45;110872;1232;97686;-76
2022/09/19 03:46:13;;;;;;;12.50;7.00;;;;;;;6.55;86.99;99810.35;110829;1232;99258;-76
2022/09/19 03:48:46;;;;;;;16.80;7.00;;;;;;;6.59;87.10;99812.86;110749;1230;139476;-76
2022/09/19 03:51:16;;;;;;;13.40;7.00;;;;;;;6.63;87.05;99811.83;110881;1232;97824;-77
2022/09/19 03:53:42;;;;;;;18.20;7.70;;;;;;;6.66;87.08;99809.89;110706;1232;138050;-76
2022/09/19 03:56:12;;;;;;;12.40;7.60;;;;;;;6.70;87.08;99808.66;110880;1230;96431;-76
2022/09/19 03:58:38;;;;;;;13.60;7.20;;;;;;;6.73;87.11;99804.11;110709;1230;138896;-78
2022/09/19 04:01:06;;;;;;;17.90;8.10;;;;;;;6.78;87.12;99803.91;110899;1230;97614;-76
2022/09/19 04:03:33;;;;;;;17.20;7.70;;;;;;;6.81;87.15;99806.23;110868;1230;97826;-76
2022/09/19 04:05:58;;;;;;;14.10;8.00;;;;;;;6.85;87.18;99808.59;110706;1232;138572;-77
2022/09/19 04:08:23;;;;;;;16.70;8.60;;;;;;;6.86;87.21;99806.41;110897;1232;97717;-75
2022/09/19 04:10:49;;;;;;;13.10;7.20;;;;;;;6.89;87.17;99812.70;110519;1232;138282;-76
2022/09/19 04:13:14;;;;;;;15.90;7.60;;;;;;;6.92;87.27;99821.09;110776;1231;99161;-77
2022/09/19 04:15:40;;;;;;;16.70;7.60;;;;;;;6.94;87.27;99816.93;110846;1231;99315;-77
2022/09/19 04:18:05;;;;;;;21.90;9.00;;;;;;;6.95;87.31;99815.27;110679;1232;137910;-75
2022/09/19 04:20:32;;;;;;;16.30;8.00;;;;;;;6.97;87.49;99817.31;110910;1232;97599;-77
2022/09/19 04:23:01;;;;;;;11.10;7.50;;;;;;;7.00;87.34;99822.19;110681;1232;138213;-76
2022/09/19 04:25:33;;;;;;;14.00;7.40;;;;;;;7.01;87.32;99820.52;110779;1232;99685;-78
2022/09/19 04:28:02;;;;;;;12.50;7.80;;;;;;;7.04;87.41;99820.95;110777;1231;107575;-78
2022/09/19 04:30:28;;;;;;;12.90;7.70;;;;;;;7.07;87.37;99826.85;110704;1231;138659;-75
2022/09/19 04:32:53;;;;;;;17.00;8.00;;;;;;;7.09;87.28;99825.85;110808;1233;96482;-75
2022/09/19 04:35:20;;;;;;;13.30;7.90;;;;;;;7.12;87.37;99830.89;110773;1231;138062;-77
2022/09/19 04:37:45;;;;;;;13.30;7.50;;;;;;;7.12;87.49;99836.38;110718;1232;107717;-74
2022/09/19 04:40:10;;;;;;;25.80;7.90;;;;;;;7.14;87.50;99836.66;110762;1232;98032;-74
2022/09/19 04:42:36;;;;;;;10.10;6.80;;;;;;;7.16;87.52;99837.46;110682;1232;139069;-76
2022/09/19 04:45:03;;;;;;;10.60;7.20;;;;;;;7.22;87.42;99840.98;110733;1232;97705;-76
2022/09/19 04:47:32;;;;;;;12.60;7.00;;;;;;;7.25;87.35;99842.44;110505;1232;138755;-76
2022/09/19 04:49:57;;;;;;;11.20;7.10;;;;;;;7.28;87.35;99843.72;110770;1232;97606;-76
2022/09/19 04:52:23;;;;;;;16.70;7.40;;;;;;;7.30;87.28;99846.46;110651;1232;138902;-74
2022/09/19 04:54:49;;;;;;;12.10;7.20;;;;;;;7.32;87.24;99849.58;110826;1232;97767;-76
2022/09/19 04:57:15;;;;;;;22.00;7.90;;;;;;;7.36;87.19;99854.59;110732;1233;107967;-75
2022/09/19 04:59:41;;;;;;;17.10;7.70;;;;;;;7.38;87.16;99855.54;109983;1232;139416;-74
2022/09/19 05:02:08;;;;;;;17.00;6.60;;;;;;;7.41;87.18;99851.15;110375;1232;97805;-76
2022/09/19 05:04:34;;;;;;;11.90;7.00;;;;;;;7.44;87.17;99856.00;110533;1232;138897;-75
2022/09/19 05:07:00;;;;;;;16.60;7.00;;;;;;;7.47;87.11;99861.20;112133;1232;95664;-75
2022/09/19 05:09:25;;;;;;;13.80;8.40;;;;;;;7.50;87.09;99867.48;112202;1233;98572;-76
2022/09/19 05:11:50;;;;;;;13.60;8.20;;;;;;;7.52;87.08;99873.64;111956;1232;138399;-74
2022/09/19 05:14:17;;;;;;;16.80;7.90;;;;;;;7.51;87.21;99875.64;110615;1232;98074;-76
2022/09/19 05:16:43;;;;;;;18.60;9.10;;;;;;;7.51;87.10;99875.06;110561;1232;139335;-78
2022/09/19 05:19:08;;;;;;;11.30;6.80;;;;;;;7.52;87.18;99871.69;110790;1231;97680;-78
2022/09/19 05:21:34;;;;;;;17.80;8.20;;;;;;;7.53;87.14;99874.46;110772;1233;97598;-76
2022/09/19 05:24:00;;;;;;;15.20;9.10;;;;;;;7.56;87.14;99875.03;110655;1232;138606;-77
2022/09/19 05:26:26;;;;;;;18.40;9.70;;;;;;;7.58;87.16;99875.67;110642;1232;97615;-78
2022/09/19 05:28:52;;;;;;;15.80;7.80;;;;;;;7.59;87.08;99876.00;110410;1233;138374;-77
2022/09/19 05:31:18;;;;;;;20.90;9.40;;;;;;;7.60;87.13;99879.16;110760;1232;97587;-76
2022/09/19 05:33:44;;;;;;;14.50;9.70;;;;;;;7.61;87.20;99886.56;110612;1232;108517;-76
2022/09/19 05:36:10;;;;;;;11.60;8.60;;;;;;;7.61;87.23;99887.63;110626;1233;138862;-76
2022/09/19 05:38:35;;;;;;;17.60;10.20;;;;;;;7.58;87.25;99891.48;110834;1232;97582;-76
2022/09/19 05:41:03;;;;;;;22.00;9.30;;;;;;;7.59;87.29;99894.13;110458;1232;138980;-77
2022/09/19 05:43:29;;;;;;;24.50;10.30;;;;;;;7.58;87.52;99896.29;110226;1232;107264;-77
2022/09/19 05:45:55;;;;;;;22.30;9.70;;;;;;;7.59;87.48;99893.76;110704;1232;97642;-76
2022/09/19 05:48:22;;;;;;;17.10;9.00;;;;;;;7.61;87.39;99897.75;110725;1233;139452;-75
2022/09/19 05:50:49;;;;;;;18.80;10.10;;;;;;;7.65;87.43;99897.60;110748;1232;100289;-74
2022/09/19 05:56:00;;;;;;;16.00;10.00;;;;;;;7.66;87.45;99903.39;110798;1232;97598;-77
2022/09/19 05:58:27;;;;;;;24.50;10.60;;;;;;;7.66;87.41;99901.42;110787;1231;139119;-76
2022/09/19 06:00:52;;;;;;;13.80;9.20;;;;;;;7.68;87.39;99902.77;110895;1232;96524;-77
2022/09/19 06:03:20;;;;;;;21.30;9.60;;;;;;;7.70;87.40;99901.98;110934;1231;97691;-76
2022/09/19 06:05:48;;;;;;;17.30;9.60;;;;;;;7.73;87.39;99908.45;110680;1230;139166;-76
2022/09/19 06:08:16;;;;;;;17.10;10.50;;;;;;;7.72;87.54;99907.75;110864;1228;97699;-77
2022/09/19 06:10:44;;;;;;;16.90;9.90;;;;;;;7.76;87.60;99909.20;110404;1230;139067;-77
2022/09/19 06:13:15;;;;;;;20.10;11.30;;;;;;;7.78;87.55;99908.20;110830;1230;99095;-74
2022/09/19 06:15:41;;;;;;;20.10;10.50;;;;;;;7.81;87.59;99919.79;110763;1231;107646;-76
2022/09/19 06:18:09;;;;;;;20.10;11.40;;;;;;;7.84;87.45;99921.46;110737;1230;138682;-75
2022/09/19 06:20:36;;;;;;;22.10;11.80;;;;;;;7.86;87.49;99918.14;110857;1230;97740;-72
2022/09/19 06:23:03;;;;;;;18.60;11.70;;;;;;;7.89;87.38;99919.98;110883;1230;139030;-77
2022/09/19 06:25:30;;;;;;;19.20;12.30;;;;;;;7.91;87.52;99923.10;111449;1229;97606;-76
2022/09/19 06:27:57;;;;;;;19.30;10.60;;;;;;;7.91;87.53;99919.35;110842;1231;96623;-78
2022/09/19 06:30:23;;;;;;;23.40;10.90;;;;;;;7.94;87.53;99920.63;110845;1230;138742;-77
2022/09/19 06:32:49;;;;;;;20.90;10.50;;;;;;;7.98;87.37;99921.19;110849;1230;111996;-75
2022/09/19 06:35:15;;;;;;;12.50;9.10;;;;;;;7.99;87.40;99924.88;111584;1233;138414;-75
2022/09/19 06:37:40;;;;;;;14.20;11.00;;;;;;;8.00;87.36;99924.30;110880;1230;96199;-76
2022/09/19 06:40:06;;;;;;;19.50;11.10;;;;;;;8.01;87.38;99927.27;110819;1229;97714;-75
2022/09/19 06:42:31;;;;;;;14.20;9.50;;;;;;;8.05;87.39;99930.48;110687;1230;140295;-75
2022/09/19 06:44:57;;;;;;;15.00;9.90;;;;;;;8.07;87.30;99929.27;110840;1233;97592;-75
2022/09/19 06:47:22;;;;;;;16.40;9.90;;;;;;;8.10;87.24;99926.85;110718;1230;140630;-77
2022/09/19 06:49:47;;;;;;;16.60;8.80;;;;;;;8.14;87.31;99931.48;110872;1232;99039;-76
2022/09/19 06:52:13;;;;;;;15.70;10.00;;;;;;;8.19;87.30;99933.05;110805;1231;99782;-74
2022/09/19 06:54:38;;;;;;;20.50;9.00;;;;;;;8.22;87.25;99941.10;110707;1231;138127;-75
2022/09/19 06:57:04;;;;;;;12.70;8.00;;;;;;;8.25;87.13;99939.55;110887;1232;97612;-76
2022/09/19 06:59:29;;;;;;;16.90;9.70;;;;;;;8.25;87.15;99941.48;110594;1231;138853;-76
2022/09/19 07:01:54;;;;;;;13.60;8.50;;;;;;;8.30;87.07;99944.84;110889;1230;97777;-76
2022/09/19 07:04:20;;;;;;;11.10;8.00;;;;;;;8.35;87.15;99947.66;110394;1231;140867;-76
2022/09/19 07:06:46;;;;;;;13.10;8.00;;;;;;;8.37;87.12;99950.60;110898;1230;97669;-75
2022/09/19 07:09:11;;;;;;;14.20;9.00;;;;;;;8.37;87.07;99949.86;110955;1230;98504;-75
2022/09/19 07:11:37;;;;;;;13.80;7.40;;;;;;;8.40;87.05;99955.62;110435;1230;138179;-73
2022/09/19 07:14:03;;;;;;;14.70;7.70;;;;;;;8.44;87.04;99953.47;110354;1231;97704;-78
2022/09/19 07:16:29;;;;;;;12.60;7.60;;;;;;;8.45;86.82;99956.66;110825;1232;138484;-77
2022/09/19 07:18:54;;;;;;;12.50;7.60;;;;;;;8.46;86.93;99956.77;110939;1232;100300;-79
2022/09/19 07:21:19;;;;;;;10.60;7.80;;;;;;;8.48;86.98;99957.42;110844;1232;99127;-76
2022/09/19 07:23:47;;;;;;;15.70;7.90;;;;;;;8.51;86.83;99956.91;110787;1232;139215;-76
2022/09/19 07:26:15;;;;;;;11.20;7.20;;;;;;;8.53;86.94;99959.48;110867;1232;111254;-78
2022/09/19 07:28:40;;;;;;;12.40;8.00;;;;;;;8.55;86.78;99960.63;110740;1230;140194;-76
2022/09/19 07:31:06;;;;;;;8.40;6.80;;;;;;;8.57;86.70;99961.05;110899;1230;98282;-77
2022/09/19 07:33:32;;;;;;;10.30;7.10;;;;;;;8.57;86.62;99964.45;110922;1230;97589;-76
2022/09/19 07:35:57;;;;;;;15.40;8.70;;;;;;;8.56;86.49;99969.86;110648;1232;138619;-77
2022/09/19 07:38:24;;;;;;;21.60;8.50;;;;;;;8.55;86.52;99966.52;110903;1232;97628;-78
2022/09/19 07:40:50;;;;;;;15.60;8.40;;;;;;;8.57;86.57;99973.34;110706;1230;139695;-77
2022/09/19 07:43:16;;;;;;;12.10;7.60;;;;;;;8.59;86.51;99976.11;110927;1232;97696;-76
2022/09/19 07:45:47;;;;;;;11.20;8.00;;;;;;;8.58;86.54;99981.00;110526;1232;96630;-76
2022/09/19 07:48:13;;;;;;;;;;;;;;;8.53;86.48;99978.86;110815;1230;138630;-76
2022/09/19 07:50:40;;;;;;;14.50;8.40;;;;;;;8.51;86.51;99977.57;110829;1230;105667;-75
2022/09/19 07:53:08;;;;;;;13.50;8.30;;;;;;;8.53;86.58;99985.64;110867;1229;138784;-75
2022/09/19 07:55:37;;;;;;;12.80;9.10;;;;;;;8.53;86.51;99991.71;110926;1230;111354;-76
2022/09/19 07:58:04;;;;;;;15.80;8.90;;;;;;;8.54;86.51;99992.73;110890;1230;99703;-78
2022/09/19 08:00:32;;;;;;;9.40;8.20;;;;;;;8.55;86.45;99992.88;110767;1231;140161;-79
2022/09/19 08:03:03;;;;;;;12.20;7.70;;;;;;;8.55;86.42;99996.61;110858;1230;97601;-79
2022/09/19 08:05:33;;;;;;;11.40;7.60;;;;;;;8.56;86.45;99996.74;110731;1230;138537;-76
2022/09/19 08:07:58;;;;;;;15.50;8.20;;;;;;;8.58;86.39;100004.82;110915;1230;111147;-78
2022/09/19 08:10:24;;;;;;;16.70;9.60;;;;;;;8.62;86.54;100006.45;110802;1230;139252;-76
2022/09/19 08:12:49;;;;;;;11.10;7.30;;;;;;;8.65;86.35;100008.61;110925;1230;97586;-74
2022/09/19 08:15:17;;;;;;;10.90;7.10;;;;;;;8.66;86.39;100010.35;110862;1232;96434;-75
2022/09/19 08:17:58;;;;;;;14.60;7.60;;;;;;;8.66;86.50;100010.02;110695;1230;138551;-74
2022/09/19 08:20:25;;;;;;;14.80;7.60;;;;;;;8.68;86.50;100010.95;110935;1230;99758;-77
2022/09/19 08:22:56;;;;;;;8.70;5.70;;;;;;;8.71;86.44;100012.05;110860;1230;139211;-76
2022/09/19 08:25:22;;;;;;;7.90;5.60;;;;;;;8.74;86.52;100018.86;110921;1231;97711;-74
2022/09/19 08:27:48;;;;;;;5.30;4.20;;;;;;;8.73;86.56;100016.25;110865;1230;100624;-74
2022/09/19 08:30:13;;;;;;;7.60;4.90;;;;;;;8.72;86.65;100017.02;110778;1230;138486;-74
2022/09/19 08:32:38;;;;;;;9.40;5.20;;;;;;;8.71;86.81;100019.91;110905;1231;98019;-74
2022/09/19 08:35:04;;;;;;;11.70;5.20;;;;;;;8.71;86.93;100020.81;110731;1231;140487;-73
2022/09/19 08:37:30;;;;;;;5.80;4.60;;;;;;;8.72;87.07;100019.48;110973;1231;97699;-72
2022/09/19 08:40:15;;;;;;;6.90;5.00;;;;;;;8.71;87.07;100022.95;110510;1232;97766;-72
2022/09/19 08:42:46;;;;;;;7.10;4.50;;;;;;;8.73;87.10;100024.42;110725;1232;138297;-75
2022/09/19 08:45:36;;;;;;;9.60;4.80;;;;;;;8.76;87.06;100026.63;110228;1230;97689;-73
2022/09/19 08:48:10;;;;;;;5.50;3.40;;;;;;;8.76;87.21;100030.70;110282;1232;138670;-72
2022/09/19 08:50:40;;;;;;;5.50;3.60;;;;;;;8.77;87.40;100030.47;110795;1231;111262;-75
2022/09/19 08:53:13;;;;;;;8.10;3.70;;;;;;;8.79;87.56;100034.33;110781;1232;138411;-71
2022/09/19 08:55:41;;;;;;;5.60;3.90;;;;;;;8.81;87.73;100035.48;110747;1231;107716;-72
2022/09/19 08:58:14;;;;;;;5.00;3.90;;;;;;;8.81;87.81;100036.56;110789;1231;97692;-72
2022/09/19 09:00:45;;;;;;;6.30;4.40;;;;;;;8.84;87.91;100036.59;110686;1233;139035;-73
2022/09/19 09:03:16;;;;;;;6.00;4.20;;;;;;;8.90;88.01;100039.19;110861;1232;111282;-72
2022/09/19 09:05:43;;;;;;;5.10;3.80;;;;;;;8.96;87.96;100043.15;110722;1230;139835;-74
2022/09/19 09:08:34;;;;;;;6.30;4.70;;;;;;;9.04;87.97;100043.88;110752;1230;97627;-75
2022/09/19 09:11:18;;;;;;;6.30;3.80;;;;;;;9.12;88.03;100044.76;110643;1230;138906;-71
2022/09/19 09:14:03;;;;;;;6.60;4.10;;;;;;;9.19;88.07;100050.63;110829;1230;97866;-73
2022/09/19 09:17:01;;;;;;;5.20;4.20;;;;;;;9.24;88.20;100043.62;110695;1232;138805;-72
2022/09/19 09:20:04;;;;;;;6.70;4.20;;;;;;;9.26;88.27;100050.48;110870;1230;99714;-71
2022/09/19 09:22:39;;;;;;;6.10;4.10;;;;;;;9.24;88.29;100049.69;110733;1230;139523;-73
2022/09/19 09:25:18;;;;;;;4.90;4.00;;;;;;;9.25;88.38;100050.35;110844;1230;97625;-74
2022/09/19 09:28:04;;;;;;;8.40;4.10;;;;;;;9.25;88.38;100050.02;110800;1230;98543;-73
2022/09/19 09:30:29;;;;;;;7.10;4.20;;;;;;;9.31;88.40;100043.98;110660;1230;138632;-76
2022/09/19 09:33:06;;;;;;;7.10;4.00;;;;;;;9.37;88.20;100045.16;110788;1230;97595;-75
2022/09/19 09:35:47;;;;;;;5.40;4.00;;;;;;;9.45;88.38;100047.78;110758;1230;138325;-76
2022/09/19 09:38:33;;;;;;;4.70;3.50;;;;;;;9.54;88.21;100056.27;110882;1231;97647;-74
2022/09/19 09:44:01;;;;;;;4.30;3.60;;;;;;;9.57;88.12;100060.58;110874;1230;109543;-75
2022/09/19 09:46:43;;;;;;;5.20;3.80;;;;;;;9.57;88.20;100058.81;110804;1230;138597;-75
2022/09/19 09:49:12;;;;;;;5.20;3.80;;;;;;;9.61;88.16;100060.92;110873;1230;107750;-70
2022/09/19 09:52:00;;;;;;;3.60;3.30;;;;;;;9.68;88.03;100060.05;110866;1230;97656;-75
2022/09/19 09:57:48;;;;;;;6.60;3.90;;;;;;;9.75;88.05;100066.27;110703;1231;109970;-75
2022/09/19 10:03:36;;;;;;;7.40;4.20;;;;;;;9.97;88.05;100071.46;110844;1231;108985;-79
2022/09/19 10:06:11;;;;;;;5.80;3.50;;;;;;;10.09;88.09;100074.23;110636;1232;139087;-77
2022/09/19 10:08:46;;;;;;;4.50;3.50;;;;;;;10.15;87.92;100080.72;110789;1231;97683;-75
2022/09/19 10:11:31;;;;;;;6.70;3.50;;;;;;;10.21;87.95;100076.33;110857;1231;139585;-76
2022/09/19 10:14:02;;;;;;;3.90;3.20;;;;;;;10.28;87.82;100078.83;110834;1232;99810;-77
2022/09/19 10:16:32;;;;;;;;;;;;;;;10.25;87.66;100083.25;110734;1231;138480;-75
2022/09/19 10:19:30;;;;;;;4.70;3.80;;;;;;;10.20;87.72;100084.23;110828;1232;97609;-76
2022/09/19 10:21:56;;;;;;;4.90;3.30;;;;;;;10.20;87.80;100083.17;110825;1231;97609;-75
2022/09/19 10:24:53;;;;;;;5.70;3.90;;;;;;;10.20;87.55;100091.20;110577;1231;138240;-76
2022/09/19 10:27:38;;;;;;;5.90;3.50;;;;;;;10.27;87.62;100088.17;110794;1232;99309;-76
2022/09/19 10:30:16;;;;;;;3.40;2.60;;;;;;;10.33;87.53;100087.52;110637;1232;138567;-75
2022/09/19 10:32:43;;;;;;;4.20;2.70;;;;;;;10.35;87.40;100093.46;110807;1231;98069;-75
2022/09/19 10:35:30;;;;;;;3.90;3.50;;;;;;;10.34;87.28;100092.25;110786;1230;138439;-74
2022/09/19 10:38:16;;;;;;;5.40;3.70;;;;;;;10.33;87.20;100091.95;110776;1230;111327;-73
2022/09/19 10:40:57;;;;;;;6.50;3.00;;;;;;;10.37;87.29;100095.69;110468;1229;139627;-73
2022/09/19 10:43:34;;;;;;;4.30;2.80;;;;;;;10.38;87.05;100095.29;110822;1230;108030;-76
2022/09/19 10:46:06;;;;;;;3.20;2.80;;;;;;;10.38;87.14;100101.02;110451;1230;99056;-72
2022/09/19 10:48:37;;;;;;;4.90;2.70;;;;;;;10.36;87.15;100101.09;110278;1230;138952;-73
2022/09/19 10:51:13;;;;;;;5.70;2.60;;;;;;;10.36;87.04;100102.52;110916;1230;111350;-77
2022/09/19 10:53:45;;;;;;;4.80;3.00;;;;;;;10.37;87.11;100101.96;110817;1229;139400;-76
2022/09/19 10:56:29;;;;;;;4.50;2.40;;;;;;;10.37;87.19;100106.23;110814;1232;106699;-75
2022/09/19 10:59:03;;;;;;;3.90;2.80;;;;;;;10.36;87.08;100103.42;110836;1230;138715;-77
2022/09/19 11:01:29;;;;;;;5.00;2.60;;;;;;;10.37;87.07;100109.79;110835;1231;97721;-78
2022/09/19 11:03:58;;;;;;;4.00;2.70;;;;;;;10.39;87.10;100109.16;110797;1231;97617;-76
2022/09/19 11:06:24;;;;;;;4.70;2.80;;;;;;;10.41;87.03;100110.08;110751;1231;138466;-76
2022/09/19 11:08:52;;;;;;;3.90;3.00;;;;;;;10.47;87.06;100112.66;110850;1232;97602;-76
2022/09/19 11:11:30;;;;;;;3.50;2.70;;;;;;;10.50;86.92;100111.39;110714;1231;138467;-76
2022/09/19 11:14:10;;;;;;;4.80;2.50;;;;;;;10.54;86.90;100110.30;110816;1232;97811;-77
2022/09/19 11:17:15;;;;;;;2.40;2.00;;;;;;;10.58;86.81;100111.36;110675;1231;139373;-77
2022/09/19 11:20:14;;;;;;;3.10;2.00;;;;;;;10.60;86.76;100111.96;110792;1231;99650;-75
2022/09/19 11:23:22;;;;;;;5.60;2.30;;;;;;;10.63;86.82;100114.86;110636;1231;138949;-76
2022/09/19 11:26:14;;;;;;;3.40;2.30;;;;;;;10.68;86.79;100117.45;110772;1232;97693;-75
2022/09/19 11:29:10;;;;;;;2.50;2.00;;;;;;;10.68;86.63;100118.88;110702;1231;138591;-74
2022/09/19 11:32:06;;;;;;;5.40;3.40;;;;;;;10.70;86.64;100123.59;110815;1230;110761;-78
2022/09/19 11:34:46;;;;;;;1.90;1.80;;;;;;;10.75;86.48;100120.64;110667;1230;139339;-76
2022/09/19 11:37:46;;;;;;;3.50;2.30;;;;;;;10.79;86.36;100118.16;110826;1231;107711;-77
2022/09/19 11:40:27;;;;;;;2.20;2.00;;;;;;;10.83;86.39;100120.27;110822;1230;97170;-77
2022/09/19 11:43:07;;;;;;;1.90;1.80;;;;;;;10.91;86.28;100119.65;110850;1230;97692;-77
2022/09/19 11:45:55;;;;;;;4.00;2.60;;;;;;;11.02;86.35;100117.77;110880;1231;110256;-77
2022/09/19 11:48:54;;;;;;;3.40;2.00;;;;;;;11.16;86.24;100113.81;110742;1230;139249;-74
2022/09/19 11:51:49;;;;;;;3.40;2.00;;;;;;;11.28;86.15;100115.13;110845;1230;107917;-78
2022/09/19 11:54:47;;;;;;;5.80;2.80;;;;;;;11.31;85.92;100116.55;110728;1231;138905;-78
2022/09/19 11:57:25;;;;;;;2.40;1.80;;;;;;;11.38;85.79;100113.30;110864;1232;97708;-78
2022/09/19 12:00:00;;;;;;;2.20;2.00;;;;;;;11.49;85.87;100117.22;110692;1231;138399;-78
2022/09/19 12:02:41;;;;;;;2.20;2.00;;;;;;;11.65;85.96;100105.03;110839;1231;100340;-79